sensor_id;sensor_type;location;lat;lon;timestamp;P1;P2;P0
62981;PMS5003;49075;53.988;27.678;2023-03-01T00:01:41;32.5;32.5;25.5
62981;PMS5003;49075;53.988;27.678;2023-03-01T00:07:05;36.6;35.2;27.4
62981;PMS5003;49075;53.988;27.678;2023-03-01T00:11:26;33.2;32.2;26.4
62981;PMS5003;49075;53.988;27.678;2023-03-01T00:16:20;32.6;31.6;25
62981;PMS5003;49075;53.988;27.678;2023-03-01T00:21:25;34.8;34;26.8
62981;PMS5003;49075;53.988;27.678;2023-03-01T00:26:55;32;31;25.4
62981;PMS5003;49075;53.988;27.678;2023-03-01T00:31:57;33.6;32.6;26
62981;PMS5003;49075;53.988;27.678;2023-03-01T00:36:39;30.4;30;24.4
62981;PMS5003;49075;53.988;27.678;2023-03-01T00:41:33;34.2;34.2;27.6
62981;PMS5003;49075;53.988;27.678;2023-03-01T00:46:20;34.8;34.2;27.8
62981;PMS5003;49075;53.988;27.678;2023-03-01T00:51:57;32.8;32.2;26.4
62981;PMS5003;49075;53.988;27.678;2023-03-01T00:57:05;32.6;32.6;26.2
62981;PMS5003;49075;53.988;27.678;2023-03-01T01:01:37;34.3;32.8;25.3
62981;PMS5003;49075;53.988;27.678;2023-03-01T01:06:40;35.8;35.2;27
62981;PMS5003;49075;53.988;27.678;2023-03-01T01:11:20;26.8;26.4;22.8
62981;PMS5003;49075;53.988;27.678;2023-03-01T01:17:05;29.8;29.8;24.6
62981;PMS5003;49075;53.988;27.678;2023-03-01T01:21:57;29.2;29.2;24.8
62981;PMS5003;49075;53.988;27.678;2023-03-01T01:27:03;32.2;31.8;25.6
62981;PMS5003;49075;53.988;27.678;2023-03-01T01:31:32;30.2;29.8;24
62981;PMS5003;49075;53.988;27.678;2023-03-01T01:36:19;30;30;23.8
62981;PMS5003;49075;53.988;27.678;2023-03-01T01:42:03;24.4;24.4;21
62981;PMS5003;49075;53.988;27.678;2023-03-01T01:46:58;28.6;28.4;23.8
62981;PMS5003;49075;53.988;27.678;2023-03-01T01:52:05;29.6;29.6;24.6
62981;PMS5003;49075;53.988;27.678;2023-03-01T01:56:19;32;32;25.6
62981;PMS5003;49075;53.988;27.678;2023-03-01T02:01:55;31.8;31.5;25.8
62981;PMS5003;49075;53.988;27.678;2023-03-01T02:07:06;27;27;21
62981;PMS5003;49075;53.988;27.678;2023-03-01T02:11:57;25.2;25.2;20.8
62981;PMS5003;49075;53.988;27.678;2023-03-01T02:17:05;26.8;26.8;21.8
62981;PMS5003;49075;53.988;27.678;2023-03-01T02:21:51;31.4;30.8;24.2
62981;PMS5003;49075;53.988;27.678;2023-03-01T02:26:20;32.6;32.4;26.2
62981;PMS5003;49075;53.988;27.678;2023-03-01T02:31:58;27.4;27.4;23
62981;PMS5003;49075;53.988;27.678;2023-03-01T02:36:52;29;28.6;23
62981;PMS5003;49075;53.988;27.678;2023-03-01T02:42:05;32;31.4;24.8
62981;PMS5003;49075;53.988;27.678;2023-03-01T02:46:43;32.2;31.6;25.2
62981;PMS5003;49075;53.988;27.678;2023-03-01T02:51:42;31.6;31.2;26
62981;PMS5003;49075;53.988;27.678;2023-03-01T02:56:29;28.4;28;23.6
62981;PMS5003;49075;53.988;27.678;2023-03-01T03:01:57;27.8;27.4;21.8
62981;PMS5003;49075;53.988;27.678;2023-03-01T03:07:05;28.3;27.8;23.3
62981;PMS5003;49075;53.988;27.678;2023-03-01T03:11:25;28;28;23.6
62981;PMS5003;49075;53.988;27.678;2023-03-01T03:16:55;26;25.8;22.2
62981;PMS5003;49075;53.988;27.678;2023-03-01T03:21:43;25.8;25.2;21.8
62981;PMS5003;49075;53.988;27.678;2023-03-01T03:26:57;29.2;29.2;25
62981;PMS5003;49075;53.988;27.678;2023-03-01T03:32:03;32.8;32.6;26.8
62981;PMS5003;49075;53.988;27.678;2023-03-01T03:36:20;23.8;23.8;21.6
62981;PMS5003;49075;53.988;27.678;2023-03-01T03:41:19;32.4;32.2;26.4
62981;PMS5003;49075;53.988;27.678;2023-03-01T03:47:05;30;30;26
62981;PMS5003;49075;53.988;27.678;2023-03-01T03:51:55;32.6;31;25.6
62981;PMS5003;49075;53.988;27.678;2023-03-01T03:57:03;34.8;33.8;26.6
62981;PMS5003;49075;53.988;27.678;2023-03-01T04:01:31;30.4;29.8;24.8
62981;PMS5003;49075;53.988;27.678;2023-03-01T04:06:37;28.5;28.3;23.8
62981;PMS5003;49075;53.988;27.678;2023-03-01T04:12:05;31.4;31;25.6
62981;PMS5003;49075;53.988;27.678;2023-03-01T04:16:57;34.2;33.4;27.4
62981;PMS5003;49075;53.988;27.678;2023-03-01T04:22:05;28.8;28.8;25.2
62981;PMS5003;49075;53.988;27.678;2023-03-01T04:26:19;32.6;32.6;27.6
62981;PMS5003;49075;53.988;27.678;2023-03-01T04:31:39;31.4;31.4;26.4
62981;PMS5003;49075;53.988;27.678;2023-03-01T04:37:01;27;26.8;23.8
62981;PMS5003;49075;53.988;27.678;2023-03-01T04:41:41;31.2;31;25.6
62981;PMS5003;49075;53.988;27.678;2023-03-01T04:47:03;34.4;34;27.6
62981;PMS5003;49075;53.988;27.678;2023-03-01T04:51:19;31.8;31;25.6
62981;PMS5003;49075;53.988;27.678;2023-03-01T04:56:37;28.6;28.6;23.8
62981;PMS5003;49075;53.988;27.678;2023-03-01T05:02:01;28.4;28.4;25
62981;PMS5003;49075;53.988;27.678;2023-03-01T05:06:55;37.5;36.3;29.3
62981;PMS5003;49075;53.988;27.678;2023-03-01T05:12:03;35.2;33.6;28.4
62981;PMS5003;49075;53.988;27.678;2023-03-01T05:16:37;26.4;26.2;23.4
62981;PMS5003;49075;53.988;27.678;2023-03-01T05:21:51;27.4;27.2;23.8
62981;PMS5003;49075;53.988;27.678;2023-03-01T05:26:45;24.6;24.2;21.8
62981;PMS5003;49075;53.988;27.678;2023-03-01T05:31:54;25.8;25.2;23.2
62981;PMS5003;49075;53.988;27.678;2023-03-01T05:36:53;31.2;30.8;25.8
62981;PMS5003;49075;53.988;27.678;2023-03-01T05:41:31;26.2;26.2;22.8
62981;PMS5003;49075;53.988;27.678;2023-03-01T05:46:39;37;35.4;27.2
62981;PMS5003;49075;53.988;27.678;2023-03-01T05:51:29;34.6;33.2;24.8
62981;PMS5003;49075;53.988;27.678;2023-03-01T05:56:53;41;38;29
62981;PMS5003;49075;53.988;27.678;2023-03-01T06:02:05;51.2;45.8;32.2
62981;PMS5003;49075;53.988;27.678;2023-03-01T06:06:37;44.8;41.3;29.8
62981;PMS5003;49075;53.988;27.678;2023-03-01T06:11:39;41.8;38.2;27.6
62981;PMS5003;49075;53.988;27.678;2023-03-01T06:16:27;27.4;27.2;22.6
62981;PMS5003;49075;53.988;27.678;2023-03-01T06:21:55;24.8;24.8;21.6
62981;PMS5003;49075;53.988;27.678;2023-03-01T06:27:05;23.2;22.4;18.8
62981;PMS5003;49075;53.988;27.678;2023-03-01T06:31:37;26.2;26;22.2
62981;PMS5003;49075;53.988;27.678;2023-03-01T06:36:39;24;23.6;21
62981;PMS5003;49075;53.988;27.678;2023-03-01T06:41:29;26.6;26.6;22.4
62981;PMS5003;49075;53.988;27.678;2023-03-01T06:47:05;23.4;23;19.2
62981;PMS5003;49075;53.988;27.678;2023-03-01T06:52:05;17.6;17.6;14.6
62981;PMS5003;49075;53.988;27.678;2023-03-01T06:56:19;19.8;19.8;16.4
62981;PMS5003;49075;53.988;27.678;2023-03-01T07:01:39;26.8;26.8;21.8
62981;PMS5003;49075;53.988;27.678;2023-03-01T07:06:19;23.3;22.5;20.5
62981;PMS5003;49075;53.988;27.678;2023-03-01T07:11:55;25.8;25.6;21.4
62981;PMS5003;49075;53.988;27.678;2023-03-01T07:17:09;24;23.6;19.6
62981;PMS5003;49075;53.988;27.678;2023-03-01T07:21:19;28.8;28.8;24.4
62981;PMS5003;49075;53.988;27.678;2023-03-01T07:26:29;26.6;25.4;20.4
62981;PMS5003;49075;53.988;27.678;2023-03-01T07:31:33;26.2;26;20.6
62981;PMS5003;49075;53.988;27.678;2023-03-01T07:36:49;25.4;25;21.4
62981;PMS5003;49075;53.988;27.678;2023-03-01T07:42:09;21.4;21.4;20.2
62981;PMS5003;49075;53.988;27.678;2023-03-01T07:46:29;23.2;23.2;20.8
62981;PMS5003;49075;53.988;27.678;2023-03-01T07:51:19;19.8;19.4;18.2
62981;PMS5003;49075;53.988;27.678;2023-03-01T07:56:29;23;23;19.6
62981;PMS5003;49075;53.988;27.678;2023-03-01T08:01:55;23.8;23.6;20.6
62981;PMS5003;49075;53.988;27.678;2023-03-01T08:07:05;22.4;22.4;20.6
62981;PMS5003;49075;53.988;27.678;2023-03-01T08:11:19;23.3;22.3;20.5
62981;PMS5003;49075;53.988;27.678;2023-03-01T08:16:41;24.6;24.4;20.4
62981;PMS5003;49075;53.988;27.678;2023-03-01T08:21:51;27.2;26.8;23.6
62981;PMS5003;49075;53.988;27.678;2023-03-01T08:26:53;20.8;20.6;17.6
62981;PMS5003;49075;53.988;27.678;2023-03-01T08:32:09;23.2;23.2;20.8
62981;PMS5003;49075;53.988;27.678;2023-03-01T08:36:19;18.2;18.2;16.6
62981;PMS5003;49075;53.988;27.678;2023-03-01T08:41:41;22;21.8;18.2
62981;PMS5003;49075;53.988;27.678;2023-03-01T08:46:19;20.4;20.4;16.6
62981;PMS5003;49075;53.988;27.678;2023-03-01T08:51:56;14.4;14.2;13.2
62981;PMS5003;49075;53.988;27.678;2023-03-01T08:57:05;18;17.6;15.4
62981;PMS5003;49075;53.988;27.678;2023-03-01T09:01:19;20.4;20.4;18.6
62981;PMS5003;49075;53.988;27.678;2023-03-01T09:06:19;16.2;16.2;14.6
62981;PMS5003;49075;53.988;27.678;2023-03-01T09:11:31;18.8;18.8;16.3
62981;PMS5003;49075;53.988;27.678;2023-03-01T09:16:55;19.8;19.6;18
62981;PMS5003;49075;53.988;27.678;2023-03-01T09:21:22;19.4;19.4;17
62981;PMS5003;49075;53.988;27.678;2023-03-01T09:26:57;15;14.8;14
62981;PMS5003;49075;53.988;27.678;2023-03-01T09:32:07;20.4;20.4;17.6
62981;PMS5003;49075;53.988;27.678;2023-03-01T09:36:39;18.8;18.8;16.4
62981;PMS5003;49075;53.988;27.678;2023-03-01T09:41:24;19.4;19.2;16.8
62981;PMS5003;49075;53.988;27.678;2023-03-01T09:46:51;15.4;15.4;14.6
62981;PMS5003;49075;53.988;27.678;2023-03-01T09:51:46;23.6;23.6;19.4
62981;PMS5003;49075;53.988;27.678;2023-03-01T09:57:18;15.8;15.8;14.2
62981;PMS5003;49075;53.988;27.678;2023-03-01T10:01:32;17.8;17;15
62981;PMS5003;49075;53.988;27.678;2023-03-01T10:07:12;18.2;18;16.4
62981;PMS5003;49075;53.988;27.678;2023-03-01T10:11:50;21;21;19
62981;PMS5003;49075;53.988;27.678;2023-03-01T10:16:21;19.8;19.6;17.2
62981;PMS5003;49075;53.988;27.678;2023-03-01T10:22:10;17.2;17;15.2
62981;PMS5003;49075;53.988;27.678;2023-03-01T10:26:35;18.8;18.8;15.8
62981;PMS5003;49075;53.988;27.678;2023-03-01T10:31:44;22.6;22.6;19.2
62981;PMS5003;49075;53.988;27.678;2023-03-01T10:36:53;20.4;20;18
62981;PMS5003;49075;53.988;27.678;2023-03-01T10:41:52;18.6;18.4;16.2
62981;PMS5003;49075;53.988;27.678;2023-03-01T10:47:08;19.2;19.2;16.8
62981;PMS5003;49075;53.988;27.678;2023-03-01T10:51:29;20;20;17.4
62981;PMS5003;49075;53.988;27.678;2023-03-01T10:56:47;19.6;19.2;16.4
62981;PMS5003;49075;53.988;27.678;2023-03-01T11:02:12;17.8;17.4;16
62981;PMS5003;49075;53.988;27.678;2023-03-01T11:06:43;20;19.4;16.6
62981;PMS5003;49075;53.988;27.678;2023-03-01T11:12:11;18;17.4;15.2
62981;PMS5003;49075;53.988;27.678;2023-03-01T11:16:32;20.2;19.8;17.8
62981;PMS5003;49075;53.988;27.678;2023-03-01T11:21:57;21;20.8;18.8
62981;PMS5003;49075;53.988;27.678;2023-03-01T11:26:52;21;21;17.5
62981;PMS5003;49075;53.988;27.678;2023-03-01T11:31:19;19.6;19.2;15.8
62981;PMS5003;49075;53.988;27.678;2023-03-01T11:37:07;21;20.6;17.2
62981;PMS5003;49075;53.988;27.678;2023-03-01T11:41:32;20.2;20.2;15.6
62981;PMS5003;49075;53.988;27.678;2023-03-01T11:46:45;18.4;18.4;16.4
62981;PMS5003;49075;53.988;27.678;2023-03-01T11:51:51;21;20.6;17.2
62981;PMS5003;49075;53.988;27.678;2023-03-01T11:56:22;18.4;18.4;16.4
62981;PMS5003;49075;53.988;27.678;2023-03-01T12:01:58;20;20;16.6
62981;PMS5003;49075;53.988;27.678;2023-03-01T12:06:31;14.6;14.6;12.6
62981;PMS5003;49075;53.988;27.678;2023-03-01T12:11:41;18.8;18.8;17.4
62981;PMS5003;49075;53.988;27.678;2023-03-01T12:17:05;17.2;17;15.6
62981;PMS5003;49075;53.988;27.678;2023-03-01T12:21:31;17.6;17.4;15.2
62981;PMS5003;49075;53.988;27.678;2023-03-01T12:27:09;21.3;20.8;17
62981;PMS5003;49075;53.988;27.678;2023-03-01T12:31:30;18.6;18.2;17
62981;PMS5003;49075;53.988;27.678;2023-03-01T12:36:45;20.6;20.4;18
62981;PMS5003;49075;53.988;27.678;2023-03-01T12:41:51;24;24;20.2
62981;PMS5003;49075;53.988;27.678;2023-03-01T12:46:43;26.6;26.4;22
62981;PMS5003;49075;53.988;27.678;2023-03-01T12:52:03;20.2;20;18.2
62981;PMS5003;49075;53.988;27.678;2023-03-01T12:56:30;17;16.2;15.2
62981;PMS5003;49075;53.988;27.678;2023-03-01T13:01:45;26;25.2;22
62981;PMS5003;49075;53.988;27.678;2023-03-01T13:06:57;20;19.6;17.6
62981;PMS5003;49075;53.988;27.678;2023-03-01T13:11:43;21.4;21.2;17.8
62981;PMS5003;49075;53.988;27.678;2023-03-01T13:16:55;23.2;22.8;19.8
62981;PMS5003;49075;53.988;27.678;2023-03-01T13:21:35;23.8;23.8;21
62981;PMS5003;49075;53.988;27.678;2023-03-01T13:27:10;25.4;25.4;21.4
62981;PMS5003;49075;53.988;27.678;2023-03-01T13:48:30;24;24;23
62981;PMS5003;49075;53.988;27.678;2023-03-01T14:08:40;20;20;17
62981;PMS5003;49075;53.988;27.678;2023-03-01T14:13:46;21.2;21.2;18.8
62981;PMS5003;49075;53.988;27.678;2023-03-01T14:19:04;19;19;16.4
62981;PMS5003;49075;53.988;27.678;2023-03-01T14:23:56;16.6;16.4;15
62981;PMS5003;49075;53.988;27.678;2023-03-01T14:29:24;23;22.6;20
62981;PMS5003;49075;53.988;27.678;2023-03-01T14:33:53;19.8;19.8;17.3
62981;PMS5003;49075;53.988;27.678;2023-03-01T14:38:54;22.8;22.8;19.8
62981;PMS5003;49075;53.988;27.678;2023-03-01T14:44:03;21.4;21.4;19.4
62981;PMS5003;49075;53.988;27.678;2023-03-01T14:48:50;22.8;22.2;19.8
62981;PMS5003;49075;53.988;27.678;2023-03-01T14:54:19;20.8;20.8;19.6
62981;PMS5003;49075;53.988;27.678;2023-03-01T14:58:51;23.4;23.2;20.2
62981;PMS5003;49075;53.988;27.678;2023-03-01T15:03:41;22.4;22.2;20
62981;PMS5003;49075;53.988;27.678;2023-03-01T15:09:02;22.6;22.4;19.4
62981;PMS5003;49075;53.988;27.678;2023-03-01T15:13:42;23.2;23.2;20.6
62981;PMS5003;49075;53.988;27.678;2023-03-01T15:19:16;23;22.8;20
62981;PMS5003;49075;53.988;27.678;2023-03-01T15:23:51;19.2;18.6;16.8
62981;PMS5003;49075;53.988;27.678;2023-03-01T15:28:31;21.4;21;19
62981;PMS5003;49075;53.988;27.678;2023-03-01T15:34:10;22.5;22.3;19
62981;PMS5003;49075;53.988;27.678;2023-03-01T15:38:51;22.6;22.2;20
62981;PMS5003;49075;53.988;27.678;2023-03-01T15:44:17;21.6;21.6;17.8
62981;PMS5003;49075;53.988;27.678;2023-03-01T15:48:51;26.8;26.8;23.6
62981;PMS5003;49075;53.988;27.678;2023-03-01T15:53:54;23.4;22.8;21
62981;PMS5003;49075;53.988;27.678;2023-03-01T15:59:01;22.4;22.4;19.6
62981;PMS5003;49075;53.988;27.678;2023-03-01T16:03:48;22.4;22.4;19.2
62981;PMS5003;49075;53.988;27.678;2023-03-01T16:09:14;26.2;24.4;20.2
62981;PMS5003;49075;53.988;27.678;2023-03-01T16:13:50;28;27.8;23.4
62981;PMS5003;49075;53.988;27.678;2023-03-01T16:18:30;24.6;24.2;20.4
62981;PMS5003;49075;53.988;27.678;2023-03-01T16:24:02;27.6;27.4;21.4
62981;PMS5003;49075;53.988;27.678;2023-03-01T16:28:43;23.6;23.2;19.2
62981;PMS5003;49075;53.988;27.678;2023-03-01T16:34:16;23.8;23.8;20.2
62981;PMS5003;49075;53.988;27.678;2023-03-01T16:38:50;21.8;21;19
62981;PMS5003;49075;53.988;27.678;2023-03-01T16:43:52;22.2;22.2;18.2
62981;PMS5003;49075;53.988;27.678;2023-03-01T16:49:02;23;22.8;19.4
62981;PMS5003;49075;53.988;27.678;2023-03-01T16:53:50;22.4;22.4;18
62981;PMS5003;49075;53.988;27.678;2023-03-01T16:59:14;28.4;28.2;23
62981;PMS5003;49075;53.988;27.678;2023-03-01T17:03:30;37.4;36.6;29.8
62981;PMS5003;49075;53.988;27.678;2023-03-01T17:08:30;33.8;33.2;27.6
62981;PMS5003;49075;53.988;27.678;2023-03-01T17:14:16;48;44.2;34.4
62981;PMS5003;49075;53.988;27.678;2023-03-01T17:18:30;43.8;41.4;33
62981;PMS5003;49075;53.988;27.678;2023-03-01T17:24:06;47.8;43.2;34.6
62981;PMS5003;49075;53.988;27.678;2023-03-01T17:28:52;55;48.4;37.8
62981;PMS5003;49075;53.988;27.678;2023-03-01T17:33:44;66.8;56.4;45.6
62981;PMS5003;49075;53.988;27.678;2023-03-01T17:39:16;68;57.3;47
62981;PMS5003;49075;53.988;27.678;2023-03-01T17:43:42;66.6;56.4;45.6
62981;PMS5003;49075;53.988;27.678;2023-03-01T17:49:06;73;61;52
62981;PMS5003;49075;53.988;27.678;2023-03-01T17:53:48;72.2;60;51.6
62981;PMS5003;49075;53.988;27.678;2023-03-01T17:58:30;68;57.2;45.8
62981;PMS5003;49075;53.988;27.678;2023-03-01T18:04:19;48.4;42.4;34.2
62981;PMS5003;49075;53.988;27.678;2023-03-01T18:08:30;37.4;35;27
62981;PMS5003;49075;53.988;27.678;2023-03-01T18:13:56;27.2;27;23.4
62981;PMS5003;49075;53.988;27.678;2023-03-01T18:18:52;29.4;28.6;23.6
62981;PMS5003;49075;53.988;27.678;2023-03-01T18:23:42;26;25.6;22
62981;PMS5003;49075;53.988;27.678;2023-03-01T18:29:18;24;23.6;19.8
62981;PMS5003;49075;53.988;27.678;2023-03-01T18:34:06;26.6;26.4;23.4
62981;PMS5003;49075;53.988;27.678;2023-03-01T18:39:08;34;33.8;27
62981;PMS5003;49075;53.988;27.678;2023-03-01T18:43:42;27.4;26.8;23
62981;PMS5003;49075;53.988;27.678;2023-03-01T18:48:53;22.6;22.6;19.4
62981;PMS5003;49075;53.988;27.678;2023-03-01T18:54:18;29.2;28.8;24.4
62981;PMS5003;49075;53.988;27.678;2023-03-01T18:58:30;26.6;26.6;21.8
62981;PMS5003;49075;53.988;27.678;2023-03-01T19:04:09;30;30;24.2
62981;PMS5003;49075;53.988;27.678;2023-03-01T19:08:51;26;25.6;21.6
62981;PMS5003;49075;53.988;27.678;2023-03-01T19:13:45;29.6;29.2;24.8
62981;PMS5003;49075;53.988;27.678;2023-03-01T19:19:18;25.3;25.3;21.8
62981;PMS5003;49075;53.988;27.678;2023-03-01T19:23:30;31;30.2;24.6
62981;PMS5003;49075;53.988;27.678;2023-03-01T19:29:06;30;29.4;24.8
62981;PMS5003;49075;53.988;27.678;2023-03-01T19:33:30;23.4;23.4;20.8
62981;PMS5003;49075;53.988;27.678;2023-03-01T19:38:52;23.6;23;20.4
62981;PMS5003;49075;53.988;27.678;2023-03-01T19:44:16;23.6;23.6;20.8
62981;PMS5003;49075;53.988;27.678;2023-03-01T19:48:40;29.2;28;24.6
62981;PMS5003;49075;53.988;27.678;2023-03-01T19:54:06;24.6;24.6;21.6
62981;PMS5003;49075;53.988;27.678;2023-03-01T19:58:50;28;27.5;22.3
62981;PMS5003;49075;53.988;27.678;2023-03-01T20:03:30;24.8;23.8;19.2
62981;PMS5003;49075;53.988;27.678;2023-03-01T20:09:14;29;29;24
62981;PMS5003;49075;53.988;27.678;2023-03-01T20:13:42;24.4;24.4;22
62981;PMS5003;49075;53.988;27.678;2023-03-01T20:19:06;26.8;26.4;21.4
62981;PMS5003;49075;53.988;27.678;2023-03-01T20:23:30;28.4;28;24.4
62981;PMS5003;49075;53.988;27.678;2023-03-01T20:28:30;31.3;30.8;26
62981;PMS5003;49075;53.988;27.678;2023-03-01T20:34:18;27;26.6;21.2
62981;PMS5003;49075;53.988;27.678;2023-03-01T20:38:54;27;27;24
62981;PMS5003;49075;53.988;27.678;2023-03-01T20:44:06;27;26.6;23.2
62981;PMS5003;49075;53.988;27.678;2023-03-01T20:48:50;25.4;25.4;22.8
62981;PMS5003;49075;53.988;27.678;2023-03-01T20:53:42;28.4;28.2;24.6
62981;PMS5003;49075;53.988;27.678;2023-03-01T20:59:18;26.6;25.6;22.2
62981;PMS5003;49075;53.988;27.678;2023-03-01T21:03:54;31.2;30.8;26.4
62981;PMS5003;49075;53.988;27.678;2023-03-01T21:09:14;24.4;24.2;22.4
62981;PMS5003;49075;53.988;27.678;2023-03-01T21:14:04;29.3;28.8;25.3
62981;PMS5003;49075;53.988;27.678;2023-03-01T21:19:06;24.2;23.8;22
62981;PMS5003;49075;53.988;27.678;2023-03-01T21:23:54;30.2;29.8;24.6
62981;PMS5003;49075;53.988;27.678;2023-03-01T21:28:30;23.6;23.2;20.6
62981;PMS5003;49075;53.988;27.678;2023-03-01T21:34:16;29.8;29.4;24
62981;PMS5003;49075;53.988;27.678;2023-03-01T21:39:02;20.8;20.4;18.2
62981;PMS5003;49075;53.988;27.678;2023-03-01T21:44:16;23.2;23.2;21.6
62981;PMS5003;49075;53.988;27.678;2023-03-01T21:48:44;27;26.8;22.6
62981;PMS5003;49075;53.988;27.678;2023-03-01T21:53:52;27.6;27.6;24.6
62981;PMS5003;49075;53.988;27.678;2023-03-01T21:59:16;22.6;22.6;20.4
62981;PMS5003;49075;53.988;27.678;2023-03-01T22:04:18;28.6;28;24.8
62981;PMS5003;49075;53.988;27.678;2023-03-01T22:09:14;25.4;25.4;22.6
62981;PMS5003;49075;53.988;27.678;2023-03-01T22:13:52;26;26;22.5
62981;PMS5003;49075;53.988;27.678;2023-03-01T22:18:30;22.6;22.2;20.2
62981;PMS5003;49075;53.988;27.678;2023-03-01T22:24:16;30.2;29.8;24
62981;PMS5003;49075;53.988;27.678;2023-03-01T22:29:04;28.6;28.6;24.8
62981;PMS5003;49075;53.988;27.678;2023-03-01T22:34:14;28.8;28.6;24.6
62981;PMS5003;49075;53.988;27.678;2023-03-01T22:38:30;31.8;30.6;24.6
62981;PMS5003;49075;53.988;27.678;2023-03-01T22:43:40;28;27.6;24.2
62981;PMS5003;49075;53.988;27.678;2023-03-01T22:49:14;37;36.6;28.6
62981;PMS5003;49075;53.988;27.678;2023-03-01T22:54:04;38.8;38;29.2
62981;PMS5003;49075;53.988;27.678;2023-03-01T22:59:14;35.6;35;27.8
62981;PMS5003;49075;53.988;27.678;2023-03-01T23:04:02;33.8;33;26.8
62981;PMS5003;49075;53.988;27.678;2023-03-01T23:08:30;27.8;27.4;23
62981;PMS5003;49075;53.988;27.678;2023-03-01T23:14:16;26.3;25.8;22.3
62981;PMS5003;49075;53.988;27.678;2023-03-01T23:19:04;28.8;28.8;23.8
62981;PMS5003;49075;53.988;27.678;2023-03-01T23:24:17;27.2;27.2;24
62981;PMS5003;49075;53.988;27.678;2023-03-01T23:28:30;27.4;27.2;22.6
62981;PMS5003;49075;53.988;27.678;2023-03-01T23:33:30;30.2;30;24.4
62981;PMS5003;49075;53.988;27.678;2023-03-01T23:39:16;28.2;27.8;21.8
62981;PMS5003;49075;53.988;27.678;2023-03-01T23:44:04;31.6;30.8;24.4
62981;PMS5003;49075;53.988;27.678;2023-03-01T23:49:14;24;24;21.6
62981;PMS5003;49075;53.988;27.678;2023-03-01T23:53:30;30.4;30.4;24.8
62981;PMS5003;49075;53.988;27.678;2023-03-01T23:58:30;28.6;28;23.2
